createdAt,value
2023-03-20T00:02:24.556Z,101380.50
2023-03-20T00:04:52.684Z,101379.06
2023-03-20T00:07:21.385Z,101377.69
2023-03-20T00:09:49.553Z,101380.88
2023-03-20T00:12:26.371Z,101374.88
2023-03-20T00:14:54.772Z,101374.78
2023-03-20T00:17:23.033Z,101384.06
2023-03-20T00:19:51.597Z,101369.25
2023-03-20T00:22:19.262Z,101379.63
2023-03-20T00:24:47.572Z,101379.50
2023-03-20T00:27:18.209Z,101378.38
2023-03-20T00:29:46.151Z,101380.13
2023-03-20T00:32:15.337Z,101380.22
2023-03-20T00:34:43.506Z,101374.97
2023-03-20T00:37:11.947Z,101373.03
2023-03-20T00:39:40.801Z,101380.63
2023-03-20T00:42:20.500Z,101372.72
2023-03-20T00:44:54.184Z,101373.47
2023-03-20T00:47:27.230Z,101370.94
2023-03-20T00:49:56.103Z,101367.81
2023-03-20T00:52:24.582Z,101366.50
2023-03-20T00:54:52.891Z,101369.13
2023-03-20T00:57:27.952Z,101366.16
2023-03-20T01:00:21.286Z,101365.47
2023-03-20T01:02:50.073Z,101367.09
2023-03-20T01:05:18.093Z,101369.41
2023-03-20T01:07:46.845Z,101365.41
2023-03-20T01:10:15.061Z,101363.16
2023-03-20T01:12:43.792Z,101371.63
2023-03-20T01:15:32.871Z,101365.47
2023-03-20T01:18:00.844Z,101361.75
2023-03-20T01:20:30.432Z,101362.28
2023-03-20T01:22:58.501Z,101358.63
2023-03-20T01:25:26.251Z,101356.56
2023-03-20T01:27:55.162Z,101359.31
2023-03-20T01:30:28.827Z,101360.25
2023-03-20T01:32:57.806Z,101367.00
2023-03-20T01:35:28.175Z,101361.16
2023-03-20T01:37:58.815Z,101354.56
2023-03-20T01:40:40.757Z,101349.13
2023-03-20T01:43:17.348Z,101354.13
2023-03-20T01:46:11.344Z,101345.47
2023-03-20T01:48:53.604Z,101351.84
2023-03-20T01:51:26.540Z,101334.56
2023-03-20T01:54:09.719Z,101336.00
2023-03-20T01:56:52.533Z,101336.25
2023-03-20T01:59:32.112Z,101333.13
2023-03-20T02:02:01.134Z,101338.75
2023-03-20T02:04:34.975Z,101340.94
2023-03-20T02:07:14.242Z,101329.22
2023-03-20T02:09:48.177Z,101332.03
2023-03-20T02:12:22.067Z,101335.94
2023-03-20T02:14:53.214Z,101331.28
2023-03-20T02:17:42.798Z,101342.13
2023-03-20T02:21:10.820Z,101334.75
2023-03-20T02:24:02.425Z,101341.03
2023-03-20T02:26:46.273Z,101340.44
2023-03-20T02:29:50.839Z,101329.22
2023-03-20T02:32:51.056Z,101335.22
2023-03-20T02:35:42.877Z,101330.34
2023-03-20T02:38:48.301Z,101331.41
2023-03-20T02:41:55.679Z,101338.72
2023-03-20T02:44:43.949Z,101333.75
2023-03-20T02:47:19.835Z,101319.28
2023-03-20T02:49:48.134Z,101332.81
2023-03-20T02:52:27.750Z,101323.91
2023-03-20T02:55:16.110Z,101321.75
2023-03-20T02:57:56.574Z,101323.72
2023-03-20T03:00:39.422Z,101321.09
2023-03-20T03:03:11.710Z,101313.50
2023-03-20T03:05:50.902Z,101321.19
2023-03-20T03:08:22.542Z,101315.09
2023-03-20T03:10:57.595Z,101315.91
2023-03-20T03:13:30.155Z,101311.56
2023-03-20T03:16:10.439Z,101309.41
2023-03-20T03:18:41.698Z,101306.94
2023-03-20T03:21:13.560Z,101310.94
2023-03-20T03:23:49.481Z,101307.66
2023-03-20T03:26:39.922Z,101306.88
2023-03-20T03:29:15.637Z,101303.94
2023-03-20T03:31:46.147Z,101310.56
2023-03-20T03:34:18.105Z,101307.34
2023-03-20T03:37:17.837Z,101311.28
2023-03-20T03:40:19.822Z,101311.50
2023-03-20T03:42:59.636Z,101312.56
2023-03-20T03:45:42.210Z,101317.00
2023-03-20T03:48:24.383Z,101314.41
2023-03-20T03:51:02.336Z,101313.56
2023-03-20T03:53:35.042Z,101317.50
2023-03-20T03:56:07.134Z,101319.13
2023-03-20T03:58:57.988Z,101315.09
2023-03-20T04:01:27.557Z,101314.09
2023-03-20T04:04:01.232Z,101310.81
2023-03-20T04:06:29.483Z,101309.41
2023-03-20T04:08:57.445Z,101303.06
2023-03-20T04:11:29.903Z,101301.53
2023-03-20T04:13:57.978Z,101298.81
2023-03-20T04:16:27.202Z,101297.63
2023-03-20T04:18:56.580Z,101293.19
2023-03-20T04:21:25.447Z,101293.28
2023-03-20T04:23:53.866Z,101298.97
2023-03-20T04:26:23.615Z,101310.25
2023-03-20T04:28:52.201Z,101302.16
2023-03-20T04:31:39.309Z,101301.78
2023-03-20T04:34:30.270Z,101299.22
2023-03-20T04:37:03.465Z,101304.94
2023-03-20T04:39:44.044Z,101299.63
2023-03-20T04:42:13.207Z,101304.72
2023-03-20T04:44:41.261Z,101302.56
2023-03-20T04:47:09.326Z,101301.38
2023-03-20T04:49:41.146Z,101307.09
2023-03-20T04:52:09.294Z,101307.94
2023-03-20T04:54:41.074Z,101309.72
2023-03-20T04:57:08.786Z,101322.59
2023-03-20T04:59:38.529Z,101318.97
2023-03-20T05:02:06.769Z,101318.53
2023-03-20T05:04:35.013Z,101309.72
2023-03-20T05:07:03.372Z,101321.00
2023-03-20T05:09:39.481Z,101315.50
2023-03-20T05:12:13.298Z,101321.13
2023-03-20T05:14:58.130Z,101321.31
2023-03-20T05:17:47.320Z,101316.75
2023-03-20T05:20:15.453Z,101322.91
2023-03-20T05:23:06.619Z,101317.50
2023-03-20T05:25:47.322Z,101317.34
2023-03-20T05:28:38.647Z,101323.00
2023-03-20T05:31:27.041Z,101325.03
2023-03-20T05:34:14.881Z,101329.91
2023-03-20T05:37:01.067Z,101327.06
2023-03-20T05:39:47.546Z,101327.38
2023-03-20T05:42:39.220Z,101330.88
2023-03-20T05:45:20.499Z,101329.75
2023-03-20T05:48:12.822Z,101329.16
2023-03-20T05:50:40.982Z,101332.13
2023-03-20T05:53:11.836Z,101334.84
2023-03-20T05:55:58.285Z,101337.38
2023-03-20T05:58:42.385Z,101338.53
2023-03-20T06:01:42.392Z,101353.50
2023-03-20T06:04:22.889Z,101360.38
2023-03-20T06:07:10.940Z,101364.75
2023-03-20T06:09:42.761Z,101370.66
2023-03-20T06:12:14.277Z,101375.56
2023-03-20T06:14:42.468Z,101376.75
2023-03-20T06:17:10.879Z,101380.63
2023-03-20T06:19:38.720Z,101393.34
2023-03-20T06:22:07.415Z,101389.84
2023-03-20T06:24:36.096Z,101393.09
2023-03-20T06:27:05.018Z,101393.59
2023-03-20T06:29:33.158Z,101394.97
2023-03-20T06:32:14.791Z,101395.97
2023-03-20T06:34:43.141Z,101396.66
2023-03-20T06:37:11.617Z,101396.44
2023-03-20T06:39:39.580Z,101393.84
2023-03-20T06:42:15.047Z,101388.00
2023-03-20T06:44:44.961Z,101394.59
2023-03-20T06:47:31.526Z,101397.38
2023-03-20T06:49:59.576Z,101397.16
2023-03-20T06:52:27.714Z,101395.38
2023-03-20T06:55:15.791Z,101399.03
2023-03-20T06:57:45.143Z,101403.16
2023-03-20T07:00:14.539Z,101408.75
2023-03-20T07:02:43.197Z,101398.44
2023-03-20T07:05:16.030Z,101403.94
2023-03-20T07:07:43.869Z,101408.41
2023-03-20T07:10:12.613Z,101398.22
2023-03-20T07:12:44.691Z,101405.22
2023-03-20T07:15:12.741Z,101404.69
2023-03-20T07:17:40.568Z,101403.44
2023-03-20T07:20:10.115Z,101401.06
2023-03-20T07:22:38.310Z,101406.06
2023-03-20T07:25:26.165Z,101404.38
2023-03-20T07:28:00.578Z,101410.72
2023-03-20T07:30:30.007Z,101401.41
2023-03-20T07:32:58.069Z,101410.38
2023-03-20T07:35:29.790Z,101405.72
2023-03-20T07:37:58.336Z,101405.31
2023-03-20T07:40:27.168Z,101403.00
2023-03-20T07:43:02.982Z,101403.59
2023-03-20T07:45:49.880Z,101411.75
2023-03-20T07:48:20.596Z,101410.56
2023-03-20T07:50:48.141Z,101406.56
2023-03-20T07:53:15.806Z,101410.69
2023-03-20T07:55:45.253Z,101409.72
2023-03-20T07:58:12.840Z,101414.53
2023-03-20T08:00:41.306Z,101414.59
2023-03-20T08:03:09.791Z,101409.25
2023-03-20T08:05:38.918Z,101400.22
2023-03-20T08:08:07.105Z,101410.66
2023-03-20T08:10:35.948Z,101405.59
2023-03-20T08:13:03.539Z,101404.03
2023-03-20T08:15:31.777Z,101404.94
2023-03-20T08:17:59.896Z,101410.56
2023-03-20T08:20:28.371Z,101411.41
2023-03-20T08:22:56.609Z,101414.44
2023-03-20T08:25:24.286Z,101414.31
2023-03-20T08:27:51.875Z,101417.47
2023-03-20T08:30:19.961Z,101412.78
2023-03-20T08:32:47.590Z,101413.22
2023-03-20T08:35:31.543Z,101419.84
2023-03-20T08:38:00.454Z,101409.94
2023-03-20T08:40:29.061Z,101409.84
2023-03-20T08:42:56.715Z,101411.06
2023-03-20T08:45:26.363Z,101409.09
2023-03-20T08:47:55.088Z,101412.94
2023-03-20T08:50:23.599Z,101415.84
2023-03-20T08:52:51.212Z,101422.88
2023-03-20T08:55:20.038Z,101425.84
2023-03-20T08:57:48.754Z,101412.41
2023-03-20T09:00:17.131Z,101410.28
2023-03-20T09:02:45.605Z,101416.56
2023-03-20T09:05:13.730Z,101406.28
2023-03-20T09:07:41.749Z,101414.59
2023-03-20T09:10:10.836Z,101411.53
2023-03-20T09:12:39.808Z,101415.97
2023-03-20T09:15:08.378Z,101411.06
2023-03-20T09:17:36.998Z,101412.19
2023-03-20T09:20:06.461Z,101412.53
2023-03-20T09:22:34.107Z,101414.88
2023-03-20T09:25:01.859Z,101409.72
2023-03-20T09:27:30.067Z,101399.41
2023-03-20T09:29:58.184Z,101409.91
2023-03-20T09:32:25.844Z,101404.56
2023-03-20T09:34:53.624Z,101397.47
2023-03-20T09:37:22.149Z,101401.09
2023-03-20T09:39:50.255Z,101396.00
2023-03-20T09:42:39.575Z,101396.03
2023-03-20T09:45:22.748Z,101399.16
2023-03-20T09:48:19.960Z,101401.00
2023-03-20T09:51:22.506Z,101403.00
2023-03-20T09:53:59.292Z,101401.66
2023-03-20T09:56:29.977Z,101395.34
2023-03-20T09:59:04.853Z,101392.53
2023-03-20T10:01:43.585Z,101400.53
2023-03-20T10:04:12.597Z,101393.59
2023-03-20T10:06:40.491Z,101382.75
2023-03-20T10:09:24.844Z,101387.44
2023-03-20T10:12:02.672Z,101397.22
2023-03-20T10:14:58.989Z,101389.06
2023-03-20T10:17:52.106Z,101389.28
2023-03-20T10:20:34.445Z,101390.69
2023-03-20T10:23:25.686Z,101389.16
2023-03-20T10:26:03.215Z,101387.78
2023-03-20T10:29:03.710Z,101380.38
2023-03-20T10:31:34.616Z,101380.50
2023-03-20T10:34:20.267Z,101380.25
2023-03-20T10:37:23.396Z,101380.66
2023-03-20T10:39:54.966Z,101373.13
2023-03-20T10:42:31.046Z,101364.94
2023-03-20T10:45:23.784Z,101369.09
2023-03-20T10:47:52.821Z,101376.13
2023-03-20T10:50:29.024Z,101369.91
2023-03-20T10:52:58.331Z,101356.91
2023-03-20T10:55:34.869Z,101353.28
2023-03-20T10:58:11.904Z,101353.50
2023-03-20T11:00:40.776Z,101348.28
2023-03-20T11:03:20.565Z,101338.16
2023-03-20T11:06:08.830Z,101342.16
2023-03-20T11:08:41.971Z,101343.41
2023-03-20T11:11:10.870Z,101341.25
2023-03-20T11:13:45.074Z,101335.28
2023-03-20T11:16:36.801Z,101334.47
2023-03-20T11:19:07.718Z,101327.78
2023-03-20T11:21:45.465Z,101331.50
2023-03-20T11:24:40.101Z,101334.91
2023-03-20T11:27:13.305Z,101329.09
2023-03-20T11:29:45.258Z,101327.19
2023-03-20T11:32:31.496Z,101325.00
2023-03-20T11:35:23.022Z,101329.97
2023-03-20T11:37:53.623Z,101317.06
2023-03-20T11:40:35.052Z,101318.25
2023-03-20T11:43:10.597Z,101306.03
2023-03-20T11:45:44.952Z,101313.53
2023-03-20T11:48:25.518Z,101315.69
2023-03-20T11:51:09.692Z,101305.38
2023-03-20T11:53:48.265Z,101309.00
2023-03-20T11:56:29.018Z,101298.34
2023-03-20T11:59:18.520Z,101296.25
2023-03-20T12:01:53.467Z,101294.00
2023-03-20T12:04:31.603Z,101291.56
2023-03-20T12:07:04.919Z,101281.53
2023-03-20T12:09:41.124Z,101277.44
2023-03-20T12:12:34.003Z,101280.63
2023-03-20T12:15:10.552Z,101277.34
2023-03-20T12:17:47.553Z,101273.28
2023-03-20T12:20:25.348Z,101280.50
2023-03-20T12:23:14.749Z,101279.94
2023-03-20T12:25:52.527Z,101278.94
2023-03-20T12:28:20.692Z,101264.38
2023-03-20T12:30:58.956Z,101272.13
2023-03-20T12:33:38.560Z,101276.16
2023-03-20T12:36:15.192Z,101262.19
2023-03-20T12:38:44.824Z,101263.19
2023-03-20T12:41:15.030Z,101256.00
2023-03-20T12:43:49.109Z,101261.25
2023-03-20T12:46:35.783Z,101254.25
2023-03-20T12:49:41.810Z,101247.78
2023-03-20T12:52:32.676Z,101251.50
2023-03-20T12:55:16.289Z,101255.75
2023-03-20T12:57:47.789Z,101253.69
2023-03-20T13:00:32.211Z,101254.66
2023-03-20T13:03:22.298Z,101246.06
2023-03-20T13:05:58.780Z,101249.06
2023-03-20T13:08:43.243Z,101248.97
2023-03-20T13:11:31.884Z,101255.19
2023-03-20T13:14:14.850Z,101241.31
2023-03-20T13:17:02.135Z,101250.25
2023-03-20T13:19:41.820Z,101250.03
2023-03-20T13:22:31.114Z,101246.22
2023-03-20T13:25:18.898Z,101245.19
2023-03-20T13:27:57.474Z,101232.19
2023-03-20T13:30:41.048Z,101230.03
2023-03-20T13:33:34.833Z,101233.94
2023-03-20T13:36:14.818Z,101238.19
2023-03-20T13:38:52.813Z,101231.50
2023-03-20T13:41:24.904Z,101226.34
2023-03-20T13:43:58.769Z,101222.56
2023-03-20T13:46:36.415Z,101223.59
2023-03-20T13:49:17.064Z,101224.47
2023-03-20T13:51:55.385Z,101213.16
2023-03-20T13:54:38.616Z,101210.16
2023-03-20T13:57:32.568Z,101209.97
2023-03-20T14:00:25.351Z,101217.22
2023-03-20T14:03:33.569Z,101223.41
2023-03-20T14:06:02.123Z,101223.41
2023-03-20T14:08:38.232Z,101211.09
2023-03-20T14:11:21.570Z,101218.09
2023-03-20T14:13:58.458Z,101221.75
2023-03-20T14:16:29.224Z,101222.34
2023-03-20T14:19:25.534Z,101226.50
2023-03-20T14:21:57.571Z,101229.78
2023-03-20T14:24:28.827Z,101229.47
2023-03-20T14:26:58.845Z,101231.22
2023-03-20T14:29:29.910Z,101227.16
2023-03-20T14:32:13.383Z,101225.25
2023-03-20T14:34:59.482Z,101220.94
2023-03-20T14:37:30.327Z,101216.66
2023-03-20T14:40:08.336Z,101213.84
2023-03-20T14:42:48.197Z,101211.66
2023-03-20T14:45:26.207Z,101209.84
2023-03-20T14:48:11.907Z,101220.72
2023-03-20T14:50:51.122Z,101211.34
2023-03-20T14:53:27.531Z,101214.53
2023-03-20T14:55:56.259Z,101203.28
2023-03-20T14:58:51.491Z,101210.97
2023-03-20T15:01:22.189Z,101206.91
2023-03-20T15:04:10.341Z,101201.19
2023-03-20T15:06:50.731Z,101200.47
2023-03-20T15:09:23.323Z,101203.72
2023-03-20T15:11:52.793Z,101199.38
2023-03-20T15:14:28.436Z,101208.50
2023-03-20T15:17:02.317Z,101209.22
2023-03-20T15:19:31.993Z,101199.78
2023-03-20T15:22:00.798Z,101211.22
2023-03-20T15:24:30.850Z,101210.13
2023-03-20T15:27:01.139Z,101205.16
2023-03-20T15:29:32.681Z,101210.56
2023-03-20T15:32:14.129Z,101207.25
2023-03-20T15:34:44.188Z,101209.84
2023-03-20T15:37:16.588Z,101214.28
2023-03-20T15:39:51.902Z,101211.91
2023-03-20T15:42:22.586Z,101210.28
2023-03-20T15:44:53.486Z,101227.28
2023-03-20T15:47:24.935Z,101221.00
2023-03-20T15:49:56.087Z,101213.25
2023-03-20T15:52:39.885Z,101213.53
2023-03-20T15:55:15.041Z,101218.13
2023-03-20T15:57:47.396Z,101214.25
2023-03-20T16:00:17.083Z,101215.84
2023-03-20T16:02:48.535Z,101220.50
2023-03-20T16:05:18.433Z,101216.19
2023-03-20T16:07:47.453Z,101217.06
2023-03-20T16:10:19.819Z,101221.41
2023-03-20T16:12:54.641Z,101214.44
2023-03-20T16:15:27.762Z,101218.06
2023-03-20T16:18:01.484Z,101219.50
2023-03-20T16:20:33.468Z,101216.28
2023-03-20T16:23:05.617Z,101217.44
2023-03-20T16:25:35.868Z,101222.19
2023-03-20T16:28:07.317Z,101227.75
2023-03-20T16:30:36.921Z,101238.94
2023-03-20T16:33:16.587Z,101227.06
2023-03-20T16:35:48.725Z,101238.94
2023-03-20T16:38:31.868Z,101234.56
2023-03-20T16:41:31.157Z,101246.81
2023-03-20T16:44:00.482Z,101254.44
2023-03-20T16:46:28.709Z,101247.19
2023-03-20T16:49:19.799Z,101248.75
2023-03-20T16:51:49.105Z,101251.41
2023-03-20T16:54:21.499Z,101255.63
2023-03-20T16:56:54.222Z,101259.41
2023-03-20T16:59:24.944Z,101258.28
2023-03-20T17:01:54.394Z,101260.34
2023-03-20T17:04:27.943Z,101262.28
2023-03-20T17:07:01.540Z,101259.75
2023-03-20T17:09:31.349Z,101258.38
2023-03-20T17:12:19.567Z,101265.25
2023-03-20T17:14:47.622Z,101262.22
2023-03-20T17:17:19.622Z,101268.72
2023-03-20T17:19:53.195Z,101271.03
2023-03-20T17:22:24.156Z,101269.81
2023-03-20T17:24:52.841Z,101277.38
2023-03-20T17:27:21.415Z,101280.94
2023-03-20T17:29:49.918Z,101273.94
2023-03-20T17:32:20.153Z,101284.16
2023-03-20T17:34:48.272Z,101274.41
2023-03-20T17:37:29.870Z,101281.09
2023-03-20T17:39:57.974Z,101282.53
2023-03-20T17:42:31.457Z,101283.69
2023-03-20T17:45:01.439Z,101282.13
2023-03-20T17:47:30.424Z,101282.97
2023-03-20T17:49:58.897Z,101283.47
2023-03-20T17:52:29.367Z,101294.59
2023-03-20T17:54:57.694Z,101295.78
2023-03-20T17:57:28.424Z,101296.91
2023-03-20T17:59:56.582Z,101295.25
2023-03-20T18:02:25.078Z,101296.50
2023-03-20T18:04:53.506Z,101298.19
2023-03-20T18:07:21.376Z,101290.38
2023-03-20T18:09:49.659Z,101298.66
2023-03-20T18:12:18.979Z,101299.03
2023-03-20T18:14:47.330Z,101301.34
2023-03-20T18:17:16.596Z,101306.41
2023-03-20T18:19:45.009Z,101305.56
2023-03-20T18:22:13.274Z,101301.13
2023-03-20T18:24:44.883Z,101304.13
2023-03-20T18:27:13.705Z,101305.78
2023-03-20T18:29:42.211Z,101305.53
2023-03-20T18:32:10.503Z,101309.13
2023-03-20T18:34:38.632Z,101314.41
2023-03-20T18:37:09.270Z,101309.59
2023-03-20T18:39:37.334Z,101307.91
2023-03-20T18:42:04.966Z,101313.56
2023-03-20T18:44:33.419Z,101325.66
2023-03-20T18:47:01.631Z,101327.25
2023-03-20T18:49:31.127Z,101325.00
2023-03-20T18:51:58.853Z,101333.09
2023-03-20T18:54:27.242Z,101330.63
2023-03-20T18:56:59.943Z,101331.28
2023-03-20T18:59:28.446Z,101329.53
2023-03-20T19:01:56.428Z,101331.06
2023-03-20T19:04:24.547Z,101334.66
2023-03-20T19:06:53.092Z,101345.91
2023-03-20T19:09:21.899Z,101343.88
2023-03-20T19:11:50.543Z,101343.47
2023-03-20T19:14:19.367Z,101345.06
2023-03-20T19:16:47.863Z,101350.41
2023-03-20T19:19:16.667Z,101354.22
2023-03-20T19:21:44.376Z,101351.44
2023-03-20T19:24:12.461Z,101352.94
2023-03-20T19:26:40.685Z,101353.88
2023-03-20T19:29:13.868Z,101356.97
2023-03-20T19:31:42.634Z,101358.47
2023-03-20T19:34:36.766Z,101359.06
2023-03-20T19:36:59.858Z,101366.66
2023-03-20T19:39:27.601Z,101368.28
2023-03-20T19:41:55.930Z,101367.88
2023-03-20T19:44:24.102Z,101371.63
2023-03-20T19:46:52.949Z,101370.91
2023-03-20T19:49:30.098Z,101377.00
2023-03-20T19:51:59.891Z,101377.66
2023-03-20T19:54:28.695Z,101371.75
2023-03-20T19:56:56.330Z,101374.53
2023-03-20T19:59:25.756Z,101377.25
2023-03-20T20:01:54.784Z,101381.06
2023-03-20T20:04:23.500Z,101387.81
2023-03-20T20:06:55.534Z,101391.59
2023-03-20T20:09:28.747Z,101383.19
2023-03-20T20:11:58.150Z,101388.25
2023-03-20T20:14:26.065Z,101395.59
2023-03-20T20:16:55.592Z,101390.66
2023-03-20T20:19:23.306Z,101391.38
2023-03-20T20:22:19.695Z,101387.72
2023-03-20T20:24:41.090Z,101386.13
2023-03-20T20:27:18.564Z,101389.91
2023-03-20T20:29:49.400Z,101392.22
2023-03-20T20:32:19.331Z,101399.06
2023-03-20T20:40:27.948Z,101392.41
2023-03-20T20:43:01.397Z,101383.53
2023-03-20T20:45:34.871Z,101381.66
2023-03-20T20:48:06.574Z,101386.03
2023-03-20T20:50:39.357Z,101388.88
2023-03-20T20:53:08.352Z,101386.97
2023-03-20T20:55:36.637Z,101383.81
2023-03-20T20:58:05.855Z,101376.44
2023-03-20T21:00:49.433Z,101380.97
2023-03-20T21:03:20.221Z,101381.16
2023-03-20T21:05:48.312Z,101381.47
2023-03-20T21:08:18.638Z,101383.38
2023-03-20T21:10:47.161Z,101384.00
2023-03-20T21:13:15.999Z,101392.81
2023-03-20T21:15:45.769Z,101387.25
2023-03-20T21:18:14.708Z,101392.22
2023-03-20T21:20:42.861Z,101385.78
2023-03-20T21:23:11.359Z,101383.91
2023-03-20T21:25:41.395Z,101384.00
2023-03-20T21:28:11.559Z,101386.50
2023-03-20T21:30:56.132Z,101390.00
2023-03-20T21:33:35.968Z,101392.28
2023-03-20T21:36:04.822Z,101387.69
2023-03-20T21:39:14.903Z,101393.31
2023-03-20T21:41:21.631Z,101396.88
2023-03-20T21:43:50.801Z,101403.84
2023-03-20T21:46:58.787Z,101405.13
2023-03-20T22:03:29.012Z,101403.44
2023-03-20T22:07:13.494Z,101400.09
2023-03-20T22:09:45.666Z,101406.56
2023-03-20T22:12:48.025Z,101408.69
2023-03-20T22:17:59.669Z,101411.47
2023-03-20T22:21:03.906Z,101407.72
2023-03-20T22:29:32.558Z,101403.56
2023-03-20T22:35:23.002Z,101401.59
2023-03-20T22:38:00.514Z,101396.59
2023-03-20T22:40:50.461Z,101397.00
2023-03-20T22:43:07.066Z,101394.00
2023-03-20T22:45:42.521Z,101399.84
2023-03-20T22:48:15.626Z,101393.06
2023-03-20T22:50:43.787Z,101390.75
2023-03-20T22:53:11.410Z,101384.19
2023-03-20T22:55:41.627Z,101381.63
2023-03-20T22:58:12.230Z,101380.31
2023-03-20T23:00:41.636Z,101383.78
2023-03-20T23:03:22.352Z,101375.22
2023-03-20T23:06:25.454Z,101368.84
2023-03-20T23:08:58.338Z,101372.81
2023-03-20T23:11:28.057Z,101373.94
2023-03-20T23:13:56.550Z,101371.03
2023-03-20T23:16:25.313Z,101366.41
2023-03-20T23:18:53.832Z,101369.69
2023-03-20T23:21:21.887Z,101367.16
2023-03-20T23:23:49.632Z,101366.84
2023-03-20T23:26:22.563Z,101364.19
2023-03-20T23:28:53.318Z,101355.88
2023-03-20T23:31:23.897Z,101366.66
2023-03-20T23:33:55.562Z,101363.63
2023-03-20T23:36:35.834Z,101359.09
2023-03-20T23:39:08.230Z,101362.31
2023-03-20T23:42:04.608Z,101353.28
2023-03-20T23:44:25.929Z,101355.41
2023-03-20T23:46:55.636Z,101348.38
2023-03-20T23:49:24.063Z,101344.81
2023-03-20T23:51:51.750Z,101347.09
2023-03-20T23:54:19.526Z,101348.19
2023-03-20T23:56:47.872Z,101338.00
2023-03-20T23:59:21.586Z,101339.38
